New Harmony, Indiana
Current Conditions -  °F | °C
As of 3:55 PM on Saturday 25 Oct 2014 (Local Time) from KCUL Reporting Station
Clear Clear  
Wind Chill: 82°   Ceiling: Unl
Heat Index: 82°   Visibility: 10mi
Dew Point: 54°   Wind: 5mph
Humidity: 38%   Direction: 300°WNW
Pressure: 29.97"   Gusts: NA
Location:  38.13°N, 87.94°W
Report Text: KCUL 252055Z AUTO 30004KT 10SM CLR 28/12 A2997 RMK AO2 T02750120
Loading
Personal Weather Stations






























Interactive Weather Map
Tropical Storm Tracking
New forecast layout! Learn more

10-Day Weather Forecast

Advertisements
Track Severe Weather on mobile